createdAt,value
2023-01-19T00:01:29.994Z,0.20
2023-01-19T00:03:57.917Z,0.30
2023-01-19T00:06:25.964Z,0.30
2023-01-19T00:08:53.721Z,0.20
2023-01-19T00:11:21.466Z,0.30
2023-01-19T00:13:50.854Z,0.30
2023-01-19T00:16:21.528Z,0.30
2023-01-19T00:18:50.639Z,0.30
2023-01-19T00:21:18.883Z,0.30
2023-01-19T00:23:48.193Z,0.30
2023-01-19T00:26:17.230Z,0.30
2023-01-19T00:28:44.996Z,0.30
2023-01-19T00:31:14.214Z,0.30
2023-01-19T00:33:41.990Z,0.30
2023-01-19T00:36:10.873Z,0.30
2023-01-19T00:38:38.869Z,0.30
2023-01-19T00:41:06.903Z,0.30
2023-01-19T00:43:34.606Z,0.30
2023-01-19T00:46:02.379Z,0.30
2023-01-19T00:48:31.435Z,0.20
2023-01-19T00:50:59.869Z,0.30
2023-01-19T00:53:29.110Z,0.20
2023-01-19T00:55:56.806Z,0.20
2023-01-19T00:58:24.527Z,0.20
2023-01-19T01:00:54.690Z,0.20
2023-01-19T01:03:27.712Z,0.20
2023-01-19T01:05:56.922Z,0.20
2023-01-19T01:08:24.700Z,0.30
2023-01-19T01:10:52.933Z,0.20
2023-01-19T01:13:22.398Z,0.30
2023-01-19T01:15:51.966Z,0.30
2023-01-19T01:18:20.179Z,0.30
2023-01-19T01:20:47.957Z,0.30
2023-01-19T01:23:22.781Z,0.30
2023-01-19T01:25:50.665Z,0.30
2023-01-19T01:28:18.449Z,0.30
2023-01-19T01:30:46.188Z,0.30
2023-01-19T01:33:13.899Z,0.30
2023-01-19T01:35:41.631Z,0.30
2023-01-19T01:38:10.177Z,0.30
2023-01-19T01:40:42.283Z,0.30
2023-01-19T01:43:12.590Z,0.30
2023-01-19T01:45:41.867Z,0.30
2023-01-19T01:48:14.253Z,0.30
2023-01-19T01:51:02.409Z,0.30
2023-01-19T01:53:33.102Z,0.30
2023-01-19T01:56:05.315Z,0.30
2023-01-19T01:58:34.713Z,0.30
2023-01-19T02:01:19.954Z,0.40
2023-01-19T02:03:47.773Z,0.30
2023-01-19T02:06:16.027Z,0.40
2023-01-19T02:09:05.436Z,0.40
2023-01-19T02:11:53.758Z,0.40
2023-01-19T02:14:21.818Z,0.40
2023-01-19T02:16:49.898Z,0.40
2023-01-19T02:19:20.383Z,0.40
2023-01-19T02:21:54.166Z,0.50
2023-01-19T02:24:24.101Z,0.50
2023-01-19T02:26:52.373Z,0.50
2023-01-19T02:29:23.455Z,0.50
2023-01-19T02:31:52.208Z,0.50
2023-01-19T02:34:22.590Z,0.50
2023-01-19T02:36:53.584Z,0.50
2023-01-19T02:39:28.727Z,0.50
2023-01-19T02:42:03.188Z,0.50
2023-01-19T02:44:32.395Z,0.50
2023-01-19T02:47:00.303Z,0.50
2023-01-19T02:49:29.857Z,0.50
2023-01-19T02:51:57.895Z,0.50
2023-01-19T02:54:49.081Z,0.50
2023-01-19T02:57:40.558Z,0.60
2023-01-19T03:00:22.615Z,0.60
2023-01-19T03:03:02.448Z,0.60
2023-01-19T03:05:53.071Z,0.60
2023-01-19T03:08:31.392Z,0.60
2023-01-19T03:11:03.815Z,0.60
2023-01-19T03:13:36.677Z,0.60
2023-01-19T03:16:12.607Z,0.60
2023-01-19T03:18:43.683Z,0.60
2023-01-19T03:21:13.899Z,0.70
2023-01-19T03:23:45.943Z,0.70
2023-01-19T03:26:18.875Z,0.70
2023-01-19T03:28:48.804Z,0.60
2023-01-19T03:31:21.007Z,0.70
2023-01-19T03:33:51.061Z,0.70
2023-01-19T03:36:22.794Z,0.70
2023-01-19T03:38:51.948Z,0.70
2023-01-19T03:41:24.070Z,0.70
2023-01-19T03:43:54.349Z,0.70
2023-01-19T03:46:23.545Z,0.70
2023-01-19T03:48:51.862Z,0.70
2023-01-19T03:51:20.283Z,0.70
2023-01-19T03:53:49.782Z,0.70
2023-01-19T03:56:24.022Z,0.70
2023-01-19T03:58:52.359Z,0.70
2023-01-19T04:01:22.663Z,0.70
2023-01-19T04:03:51.230Z,0.80
2023-01-19T04:06:19.569Z,0.80
2023-01-19T04:08:48.991Z,0.80
2023-01-19T04:11:16.823Z,0.80
2023-01-19T04:13:46.014Z,0.80
2023-01-19T04:16:13.825Z,0.80
2023-01-19T04:18:42.090Z,0.80
2023-01-19T04:21:09.816Z,0.80
2023-01-19T04:23:37.560Z,0.80
2023-01-19T04:26:07.952Z,0.80
2023-01-19T04:28:36.926Z,0.80
2023-01-19T04:31:07.164Z,0.80
2023-01-19T04:33:35.437Z,0.80
2023-01-19T04:36:03.941Z,0.80
2023-01-19T04:38:31.640Z,0.80
2023-01-19T04:40:59.313Z,0.90
2023-01-19T04:43:27.098Z,0.90
2023-01-19T04:45:54.823Z,0.80
2023-01-19T04:48:23.877Z,0.90
2023-01-19T04:50:52.389Z,0.90
2023-01-19T04:53:20.084Z,0.90
2023-01-19T04:55:48.011Z,0.90
2023-01-19T04:58:15.767Z,0.90
2023-01-19T05:00:44.169Z,0.90
2023-01-19T05:03:11.944Z,0.90
2023-01-19T05:05:41.030Z,0.90
2023-01-19T05:08:08.717Z,0.90
2023-01-19T05:10:36.446Z,0.90
2023-01-19T05:13:04.330Z,0.90
2023-01-19T05:15:32.032Z,0.80
2023-01-19T05:17:59.726Z,0.80
2023-01-19T05:20:27.417Z,0.90
2023-01-19T05:22:56.441Z,0.80
2023-01-19T05:25:24.124Z,0.80
2023-01-19T05:27:51.828Z,0.80
2023-01-19T05:30:19.902Z,0.70
2023-01-19T05:32:47.989Z,0.70
2023-01-19T05:35:20.233Z,0.60
2023-01-19T05:37:50.697Z,0.60
2023-01-19T05:40:19.876Z,0.60
2023-01-19T05:42:47.590Z,0.60
2023-01-19T05:45:15.340Z,0.60
2023-01-19T05:47:43.017Z,0.60
2023-01-19T05:50:11.582Z,0.60
2023-01-19T05:52:39.331Z,0.50
2023-01-19T05:55:08.191Z,0.50
2023-01-19T05:57:37.199Z,0.50
2023-01-19T06:00:05.963Z,0.50
2023-01-19T06:02:33.673Z,0.50
2023-01-19T06:05:01.380Z,0.50
2023-01-19T06:07:29.330Z,0.50
2023-01-19T06:09:57.045Z,0.50
2023-01-19T06:12:24.852Z,0.50
2023-01-19T06:14:53.901Z,0.50
2023-01-19T06:17:21.692Z,0.50
2023-01-19T06:19:49.380Z,0.50
2023-01-19T06:22:17.102Z,0.50
2023-01-19T06:24:44.800Z,0.50
2023-01-19T06:27:13.675Z,0.50
2023-01-19T06:29:41.367Z,0.40
2023-01-19T06:32:10.438Z,0.40
2023-01-19T06:34:40.387Z,0.40
2023-01-19T06:37:08.068Z,0.50
2023-01-19T06:39:37.683Z,0.50
2023-01-19T06:42:05.438Z,0.40
2023-01-19T06:44:33.189Z,0.50
2023-01-19T06:47:15.194Z,0.40
2023-01-19T06:49:45.088Z,0.40
2023-01-19T06:52:15.733Z,0.50
2023-01-19T06:54:45.460Z,0.50
2023-01-19T06:57:13.823Z,0.50
2023-01-19T06:59:41.894Z,0.50
2023-01-19T07:02:27.952Z,0.50
2023-01-19T07:04:57.864Z,0.50
2023-01-19T07:07:25.806Z,0.50
2023-01-19T07:09:54.209Z,0.50
2023-01-19T07:12:22.182Z,0.50
2023-01-19T07:14:50.287Z,0.50
2023-01-19T07:17:18.317Z,0.60
2023-01-19T07:19:46.710Z,0.60
2023-01-19T07:22:15.726Z,0.60
2023-01-19T07:24:43.555Z,0.70
2023-01-19T07:27:11.586Z,0.60
2023-01-19T07:29:39.780Z,0.60
2023-01-19T07:32:07.730Z,0.60
2023-01-19T07:34:36.389Z,0.60
2023-01-19T07:37:04.648Z,0.60
2023-01-19T07:39:36.430Z,0.60
2023-01-19T07:42:04.336Z,0.60
2023-01-19T07:44:32.048Z,0.60
2023-01-19T07:47:00.087Z,0.60
2023-01-19T07:49:27.823Z,0.60
2023-01-19T07:51:56.199Z,0.60
2023-01-19T07:54:24.082Z,0.70
2023-01-19T07:56:54.675Z,0.70
2023-01-19T07:59:22.455Z,0.60
2023-01-19T08:01:50.197Z,0.70
2023-01-19T08:04:18.953Z,0.70
2023-01-19T08:06:47.374Z,0.60
2023-01-19T08:09:15.048Z,0.60
2023-01-19T08:11:42.735Z,0.60
2023-01-19T08:14:11.925Z,0.60
2023-01-19T08:16:39.714Z,0.70
2023-01-19T08:19:07.429Z,0.60
2023-01-19T08:21:35.988Z,0.70
2023-01-19T08:24:03.985Z,0.70
2023-01-19T08:26:33.553Z,0.70
2023-01-19T08:29:02.980Z,0.70
2023-01-19T08:31:32.488Z,0.70
2023-01-19T08:34:00.342Z,0.70
2023-01-19T08:36:28.293Z,0.70
2023-01-19T08:38:55.991Z,0.70
2023-01-19T08:41:23.709Z,0.70
2023-01-19T08:43:51.462Z,0.70
2023-01-19T08:46:21.716Z,0.70
2023-01-19T08:48:50.897Z,0.80
2023-01-19T08:51:18.807Z,0.70
2023-01-19T08:53:46.572Z,0.80
2023-01-19T08:56:14.493Z,0.70
2023-01-19T08:58:43.182Z,0.70
2023-01-19T09:01:13.746Z,0.70
2023-01-19T09:03:41.704Z,0.70
2023-01-19T09:06:13.013Z,0.70
2023-01-19T09:08:40.720Z,0.80
2023-01-19T09:11:12.039Z,0.80
2023-01-19T09:13:39.869Z,0.80
2023-01-19T09:16:08.875Z,0.80
2023-01-19T09:18:36.811Z,0.80
2023-01-19T09:21:04.816Z,0.90
2023-01-19T09:23:33.879Z,0.80
2023-01-19T09:26:03.251Z,0.80
2023-01-19T09:28:31.038Z,0.90
2023-01-19T09:30:58.979Z,0.90
2023-01-19T09:33:26.704Z,0.90
2023-01-19T09:35:54.519Z,0.90
2023-01-19T09:38:22.431Z,0.90
2023-01-19T09:40:55.230Z,0.90
2023-01-19T09:43:34.795Z,0.90
2023-01-19T09:46:04.082Z,0.90
2023-01-19T09:48:40.282Z,0.90
2023-01-19T09:51:11.853Z,0.90
2023-01-19T09:53:51.767Z,1.00
2023-01-19T09:56:22.195Z,1.00
2023-01-19T09:58:51.162Z,1.00
2023-01-19T10:01:35.271Z,1.10
2023-01-19T10:04:35.431Z,1.00
2023-01-19T10:07:19.810Z,1.10
2023-01-19T10:10:01.147Z,1.10
2023-01-19T10:12:40.308Z,1.10
2023-01-19T10:15:18.909Z,1.10
2023-01-19T10:17:52.943Z,1.10
2023-01-19T10:20:25.997Z,1.20
2023-01-19T10:22:53.777Z,1.20
2023-01-19T10:25:24.404Z,1.20
2023-01-19T10:27:53.504Z,1.20
2023-01-19T10:30:24.739Z,1.20
2023-01-19T10:32:53.430Z,1.20
2023-01-19T10:35:24.860Z,1.20
2023-01-19T10:37:55.953Z,1.20
2023-01-19T10:40:35.632Z,1.20
2023-01-19T10:43:36.491Z,1.20
2023-01-19T10:46:07.513Z,1.20
2023-01-19T10:48:40.532Z,1.20
2023-01-19T10:51:09.476Z,1.20
2023-01-19T10:53:37.698Z,1.20
2023-01-19T10:56:18.058Z,1.20
2023-01-19T10:58:47.134Z,1.20
2023-01-19T11:01:18.135Z,1.20
2023-01-19T11:03:46.427Z,1.20
2023-01-19T11:06:22.714Z,1.20
2023-01-19T11:08:52.325Z,1.20
2023-01-19T11:11:21.272Z,1.30
2023-01-19T11:14:08.391Z,1.40
2023-01-19T11:16:38.028Z,1.50
2023-01-19T11:19:05.895Z,1.60
2023-01-19T11:21:34.101Z,1.60
2023-01-19T11:24:05.209Z,1.60
2023-01-19T11:26:40.641Z,1.50
2023-01-19T11:29:18.636Z,1.50
2023-01-19T11:31:47.063Z,1.40
2023-01-19T11:34:32.473Z,1.40
2023-01-19T11:37:02.803Z,1.40
2023-01-19T11:39:32.267Z,1.40
2023-01-19T11:42:02.258Z,1.40
2023-01-19T11:44:36.055Z,1.40
2023-01-19T11:47:06.502Z,1.40
2023-01-19T11:49:43.193Z,1.40
2023-01-19T11:52:20.141Z,1.40
2023-01-19T11:54:58.185Z,1.40
2023-01-19T11:57:26.205Z,1.50
2023-01-19T11:59:55.428Z,1.50
2023-01-19T12:02:29.141Z,1.50
2023-01-19T12:05:02.042Z,1.50
2023-01-19T12:07:33.400Z,1.60
2023-01-19T12:10:15.708Z,1.60
2023-01-19T12:12:45.179Z,1.60
2023-01-19T12:15:22.633Z,1.60
2023-01-19T12:17:52.285Z,1.60
2023-01-19T12:20:27.785Z,1.60
2023-01-19T12:23:04.412Z,1.60
2023-01-19T12:25:44.148Z,1.60
2023-01-19T12:28:15.714Z,1.50
2023-01-19T12:30:45.375Z,1.50
2023-01-19T12:33:24.089Z,1.50
2023-01-19T12:35:56.878Z,1.40
2023-01-19T12:38:35.875Z,1.50
2023-01-19T12:41:27.999Z,1.50
2023-01-19T12:44:22.092Z,1.50
2023-01-19T12:46:54.894Z,1.50
2023-01-19T12:49:27.509Z,1.50
2023-01-19T12:52:12.360Z,1.50
2023-01-19T12:54:43.623Z,1.50
2023-01-19T12:57:20.241Z,1.50
2023-01-19T12:59:55.588Z,1.50
2023-01-19T13:02:44.084Z,1.50
2023-01-19T13:05:18.126Z,1.50
2023-01-19T13:08:20.480Z,1.50
2023-01-19T13:11:18.071Z,1.50
2023-01-19T13:14:17.349Z,1.50
2023-01-19T13:17:03.207Z,1.60
2023-01-19T13:19:43.949Z,1.60
2023-01-19T13:23:04.430Z,1.60
2023-01-19T13:25:35.679Z,1.70
2023-01-19T13:28:10.327Z,1.70
2023-01-19T13:30:44.051Z,1.70
2023-01-19T13:33:19.942Z,1.70
2023-01-19T13:35:55.641Z,1.70
2023-01-19T13:38:24.724Z,1.70
2023-01-19T13:40:54.489Z,1.80
2023-01-19T13:43:27.574Z,1.80
2023-01-19T13:45:56.145Z,1.80
2023-01-19T13:48:25.648Z,1.80
2023-01-19T13:51:06.520Z,1.80
2023-01-19T13:53:35.378Z,1.80
2023-01-19T13:56:25.284Z,1.80
2023-01-19T13:59:00.385Z,1.90
2023-01-19T14:01:30.073Z,1.90
2023-01-19T14:03:58.215Z,1.90
2023-01-19T14:06:34.635Z,1.90
2023-01-19T14:09:19.900Z,1.90
2023-01-19T14:12:04.503Z,1.90
2023-01-19T14:14:32.562Z,1.90
2023-01-19T14:17:00.409Z,1.90
2023-01-19T14:19:28.522Z,1.90
2023-01-19T14:22:02.760Z,1.90
2023-01-19T14:24:32.856Z,1.90
2023-01-19T14:27:18.704Z,1.90
2023-01-19T14:29:47.328Z,1.90
2023-01-19T14:32:16.938Z,1.90
2023-01-19T14:34:46.834Z,1.90
2023-01-19T14:37:24.929Z,1.90
2023-01-19T14:39:56.486Z,1.80
2023-01-19T14:42:28.631Z,1.80
2023-01-19T14:44:58.598Z,1.80
2023-01-19T14:47:34.578Z,1.80
2023-01-19T14:50:07.496Z,1.80
2023-01-19T14:52:40.417Z,1.80
2023-01-19T14:55:19.624Z,1.80
2023-01-19T14:57:47.676Z,1.80
2023-01-19T15:00:17.896Z,1.80
2023-01-19T15:02:45.937Z,1.80
2023-01-19T15:05:13.921Z,1.80
2023-01-19T15:07:46.042Z,1.70
2023-01-19T15:10:18.904Z,1.70
2023-01-19T15:12:46.693Z,1.80
2023-01-19T15:15:16.209Z,1.70
2023-01-19T15:17:44.302Z,1.70
2023-01-19T15:20:16.654Z,1.70
2023-01-19T15:22:46.440Z,1.70
2023-01-19T15:25:15.561Z,1.70
2023-01-19T15:27:43.829Z,1.70
2023-01-19T15:30:19.137Z,1.70
2023-01-19T15:32:47.236Z,1.70
2023-01-19T15:35:20.035Z,1.70
2023-01-19T15:37:49.919Z,1.60
2023-01-19T15:40:19.717Z,1.70
2023-01-19T15:42:47.872Z,1.60
2023-01-19T15:45:35.349Z,1.70
2023-01-19T15:48:04.943Z,1.60
2023-01-19T15:50:33.108Z,1.70
2023-01-19T15:53:02.399Z,1.60
2023-01-19T15:55:30.286Z,1.60
2023-01-19T15:58:01.368Z,1.50
2023-01-19T16:00:29.848Z,1.50
2023-01-19T16:02:57.839Z,1.50
2023-01-19T16:05:37.634Z,1.50
2023-01-19T16:08:11.655Z,1.50
2023-01-19T16:10:39.513Z,1.50
2023-01-19T16:13:07.337Z,1.50
2023-01-19T16:15:35.957Z,1.50
2023-01-19T16:18:03.719Z,1.50
2023-01-19T16:20:31.680Z,1.50
2023-01-19T16:23:13.568Z,1.40
2023-01-19T16:25:43.543Z,1.40
2023-01-19T16:28:11.288Z,1.40
2023-01-19T16:30:39.031Z,1.40
2023-01-19T16:33:08.265Z,1.40
2023-01-19T16:35:35.980Z,1.40
2023-01-19T16:38:03.932Z,1.40
2023-01-19T16:40:31.655Z,1.40
2023-01-19T16:43:00.698Z,1.40
2023-01-19T16:45:28.501Z,1.40
2023-01-19T16:47:56.282Z,1.40
2023-01-19T16:50:24.020Z,1.40
2023-01-19T16:52:56.230Z,1.40
2023-01-19T16:55:23.961Z,1.40
2023-01-19T16:57:52.373Z,1.40
2023-01-19T17:00:22.116Z,1.40
2023-01-19T17:02:49.818Z,1.40
2023-01-19T17:05:17.556Z,1.30
2023-01-19T17:07:45.239Z,1.40
2023-01-19T17:10:13.309Z,1.40
2023-01-19T17:12:41.130Z,1.40
2023-01-19T17:15:09.917Z,1.40
2023-01-19T17:17:38.940Z,1.30
2023-01-19T17:20:07.685Z,1.30
2023-01-19T17:22:35.345Z,1.30
2023-01-19T17:25:03.064Z,1.30
2023-01-19T17:27:30.981Z,1.30
2023-01-19T17:29:58.645Z,1.30
2023-01-19T17:32:26.393Z,1.30
2023-01-19T17:34:55.456Z,1.30
2023-01-19T17:37:23.149Z,1.30
2023-01-19T17:39:50.847Z,1.30
2023-01-19T17:42:18.553Z,1.30
2023-01-19T17:44:46.247Z,1.30
2023-01-19T17:47:14.029Z,1.30
2023-01-19T17:49:41.693Z,1.30
2023-01-19T17:52:10.721Z,1.30
2023-01-19T17:54:38.384Z,1.30
2023-01-19T17:57:06.081Z,1.30
2023-01-19T17:59:33.878Z,1.30
2023-01-19T18:02:01.634Z,1.30
2023-01-19T18:04:32.018Z,1.30
2023-01-19T18:06:59.874Z,1.30
2023-01-19T18:09:29.013Z,1.30
2023-01-19T18:11:56.729Z,1.30
2023-01-19T18:14:24.406Z,1.30
2023-01-19T18:16:52.109Z,1.30
2023-01-19T18:19:22.069Z,1.30
2023-01-19T18:21:50.899Z,1.30
2023-01-19T18:24:18.612Z,1.30
2023-01-19T18:26:47.658Z,1.30
2023-01-19T18:29:16.515Z,1.30
2023-01-19T18:31:44.301Z,1.30
2023-01-19T18:34:12.037Z,1.30
2023-01-19T18:36:39.734Z,1.20
2023-01-19T18:39:09.253Z,1.20
2023-01-19T18:41:41.504Z,1.30
2023-01-19T18:44:11.323Z,1.20
2023-01-19T18:46:39.485Z,1.20
2023-01-19T18:49:07.349Z,1.20
2023-01-19T18:51:35.147Z,1.20
2023-01-19T18:54:02.861Z,1.20
2023-01-19T18:56:30.558Z,1.20
2023-01-19T18:58:58.262Z,1.20
2023-01-19T19:01:32.362Z,1.20
2023-01-19T19:04:00.660Z,1.20
2023-01-19T19:06:28.721Z,1.20
2023-01-19T19:08:58.997Z,1.20
2023-01-19T19:11:27.233Z,1.20
2023-01-19T19:13:56.247Z,1.20
2023-01-19T19:16:24.532Z,1.20
2023-01-19T19:18:53.738Z,1.20
2023-01-19T19:21:23.830Z,1.20
2023-01-19T19:23:52.570Z,1.20
2023-01-19T19:26:20.680Z,1.20
2023-01-19T19:28:48.464Z,1.20
2023-01-19T19:31:20.352Z,1.20
2023-01-19T19:33:50.596Z,1.20
2023-01-19T19:36:20.616Z,1.20
2023-01-19T19:38:48.708Z,1.20
2023-01-19T19:41:19.435Z,1.20
2023-01-19T19:43:47.212Z,1.20
2023-01-19T19:46:17.660Z,1.20
2023-01-19T19:48:45.521Z,1.20
2023-01-19T19:51:19.285Z,1.30
2023-01-19T19:53:51.309Z,1.20
2023-01-19T19:56:21.049Z,1.20
2023-01-19T19:58:49.239Z,1.20
2023-01-19T20:01:19.145Z,1.20
2023-01-19T20:03:46.941Z,1.20
2023-01-19T20:06:17.815Z,1.20
2023-01-19T20:08:45.672Z,1.20
2023-01-19T20:11:16.888Z,1.20
2023-01-19T20:13:45.503Z,1.20
2023-01-19T20:16:15.536Z,1.20
2023-01-19T20:18:48.258Z,1.20
2023-01-19T20:21:17.713Z,1.20
2023-01-19T20:23:46.595Z,1.20
2023-01-19T20:26:17.173Z,1.20
2023-01-19T20:28:45.112Z,1.20
2023-01-19T20:31:15.032Z,1.20
2023-01-19T20:33:43.310Z,1.20
2023-01-19T20:36:11.927Z,1.20
2023-01-19T20:38:40.857Z,1.20
2023-01-19T20:41:10.269Z,1.20
2023-01-19T20:43:39.814Z,1.20
2023-01-19T20:46:08.114Z,1.20
2023-01-19T20:48:36.076Z,1.20
2023-01-19T20:51:05.467Z,1.20
2023-01-19T20:53:33.628Z,1.20
2023-01-19T20:56:06.067Z,1.20
2023-01-19T20:58:34.000Z,1.20
2023-01-19T21:01:10.544Z,1.20
2023-01-19T21:03:42.417Z,1.20
2023-01-19T21:06:10.536Z,1.20
2023-01-19T21:08:38.771Z,1.20
2023-01-19T21:11:07.138Z,1.20
2023-01-19T21:13:35.432Z,1.20
2023-01-19T21:16:05.305Z,1.20
2023-01-19T21:18:33.095Z,1.20
2023-01-19T21:21:00.821Z,1.20
2023-01-19T21:23:28.995Z,1.20
2023-01-19T21:25:59.738Z,1.10
2023-01-19T21:28:28.807Z,1.10
2023-01-19T21:30:57.827Z,1.10
2023-01-19T21:33:26.913Z,1.20
2023-01-19T21:35:56.642Z,1.20
2023-01-19T21:38:27.068Z,1.20
2023-01-19T21:40:55.350Z,1.20
2023-01-19T21:43:23.377Z,1.20
2023-01-19T21:45:51.397Z,1.20
2023-01-19T21:48:19.590Z,1.20
2023-01-19T21:50:57.307Z,1.20
2023-01-19T21:53:25.076Z,1.20
2023-01-19T21:55:52.786Z,1.20
2023-01-19T21:58:22.090Z,1.20
2023-01-19T22:00:49.901Z,1.20
2023-01-19T22:03:17.803Z,1.20
2023-01-19T22:05:45.530Z,1.20
2023-01-19T22:08:14.564Z,1.20
2023-01-19T22:10:42.264Z,1.20
2023-01-19T22:13:09.973Z,1.20
2023-01-19T22:15:37.699Z,1.20
2023-01-19T22:18:05.482Z,1.20
2023-01-19T22:20:33.230Z,1.20
2023-01-19T22:23:00.921Z,1.20
2023-01-19T22:25:29.982Z,1.20
2023-01-19T22:27:58.537Z,1.20
2023-01-19T22:30:26.489Z,1.20
2023-01-19T22:32:54.322Z,1.20
2023-01-19T22:35:22.109Z,1.20
2023-01-19T22:37:49.810Z,1.20
2023-01-19T22:40:18.187Z,1.20
2023-01-19T22:42:47.947Z,1.20
2023-01-19T22:45:16.074Z,1.20
2023-01-19T22:47:44.316Z,1.20
2023-01-19T22:50:12.317Z,1.20
2023-01-19T22:52:40.000Z,1.20
2023-01-19T22:55:08.142Z,1.20
2023-01-19T23:01:28.938Z,1.20
2023-01-19T23:03:57.345Z,1.20
2023-01-19T23:06:27.761Z,1.20
2023-01-19T23:08:56.671Z,1.20
2023-01-19T23:11:25.661Z,1.20
2023-01-19T23:13:53.713Z,1.30
2023-01-19T23:16:21.649Z,1.20
2023-01-19T23:18:53.842Z,1.20
2023-01-19T23:21:23.278Z,1.20
2023-01-19T23:23:54.059Z,1.20
2023-01-19T23:26:22.511Z,1.20
2023-01-19T23:28:55.379Z,1.20
2023-01-19T23:31:25.514Z,1.20
2023-01-19T23:33:55.849Z,1.20
2023-01-19T23:36:25.185Z,1.30
2023-01-19T23:38:54.309Z,1.20
2023-01-19T23:41:23.107Z,1.20
2023-01-19T23:43:51.041Z,1.20
2023-01-19T23:46:20.310Z,1.20
2023-01-19T23:48:48.478Z,1.20
2023-01-19T23:51:19.589Z,1.20
2023-01-19T23:53:47.964Z,1.20
2023-01-19T23:56:17.943Z,1.20
2023-01-19T23:58:45.993Z,1.20
